createdAt,value
2023-03-03T00:01:33.219Z,64.91
2023-03-03T00:04:01.402Z,63.87
2023-03-03T00:06:30.688Z,63.11
2023-03-03T00:08:58.879Z,62.75
2023-03-03T00:11:27.244Z,62.30
2023-03-03T00:13:56.564Z,61.37
2023-03-03T00:16:26.441Z,61.06
2023-03-03T00:18:55.551Z,60.76
2023-03-03T00:21:29.883Z,58.28
2023-03-03T00:24:18.819Z,55.66
2023-03-03T00:26:58.462Z,55.95
2023-03-03T00:29:56.646Z,57.85
2023-03-03T00:32:29.663Z,62.38
2023-03-03T00:35:17.879Z,66.56
2023-03-03T00:37:46.139Z,67.16
2023-03-03T00:40:26.960Z,66.17
2023-03-03T00:42:57.116Z,65.36
2023-03-03T00:45:31.526Z,64.98
2023-03-03T00:48:00.337Z,63.51
2023-03-03T00:50:31.991Z,62.87
2023-03-03T00:53:01.083Z,62.57
2023-03-03T00:55:30.490Z,62.00
2023-03-03T00:57:58.762Z,61.23
2023-03-03T01:00:28.883Z,60.60
2023-03-03T01:02:57.488Z,60.33
2023-03-03T01:05:25.939Z,60.36
2023-03-03T01:07:54.108Z,60.29
2023-03-03T01:10:22.280Z,57.61
2023-03-03T01:12:50.370Z,55.52
2023-03-03T01:15:19.240Z,55.68
2023-03-03T01:17:47.410Z,56.75
2023-03-03T01:20:16.411Z,58.16
2023-03-03T01:22:44.589Z,61.68
2023-03-03T01:25:12.959Z,66.61
2023-03-03T01:27:41.129Z,67.01
2023-03-03T01:30:10.117Z,66.23
2023-03-03T01:32:38.491Z,65.23
2023-03-03T01:35:07.383Z,64.29
2023-03-03T01:37:38.934Z,63.20
2023-03-03T01:40:11.797Z,62.13
2023-03-03T01:42:39.986Z,61.89
2023-03-03T01:45:20.350Z,61.76
2023-03-03T01:47:54.566Z,61.50
2023-03-03T01:50:32.151Z,60.77
2023-03-03T01:53:03.194Z,60.65
2023-03-03T01:55:34.935Z,57.52
2023-03-03T01:58:16.426Z,55.89
2023-03-03T02:00:47.060Z,55.51
2023-03-03T02:03:15.026Z,56.99
2023-03-03T02:05:43.517Z,55.18
2023-03-03T02:08:17.004Z,62.61
2023-03-03T02:10:46.405Z,67.08
2023-03-03T02:13:14.587Z,67.63
2023-03-03T02:15:42.855Z,66.78
2023-03-03T02:18:13.701Z,65.72
2023-03-03T02:20:57.326Z,65.03
2023-03-03T02:23:37.582Z,65.73
2023-03-03T02:26:19.276Z,64.20
2023-03-03T02:28:47.454Z,63.78
2023-03-03T02:31:17.666Z,63.39
2023-03-03T02:33:48.503Z,62.74
2023-03-03T02:36:18.007Z,62.34
2023-03-03T02:39:04.302Z,63.14
2023-03-03T02:41:45.477Z,62.28
2023-03-03T02:44:16.291Z,61.27
2023-03-03T02:46:49.097Z,61.12
2023-03-03T02:49:21.200Z,60.41
2023-03-03T02:51:50.327Z,57.70
2023-03-03T02:54:21.258Z,56.32
2023-03-03T02:56:50.084Z,57.17
2023-03-03T02:59:18.551Z,58.42
2023-03-03T03:01:49.381Z,61.92
2023-03-03T03:04:21.974Z,66.24
2023-03-03T03:06:51.681Z,67.16
2023-03-03T03:09:21.784Z,66.65
2023-03-03T03:11:51.286Z,66.14
2023-03-03T03:14:22.026Z,65.39
2023-03-03T03:16:50.408Z,64.93
2023-03-03T03:19:18.567Z,64.29
2023-03-03T03:21:47.057Z,63.58
2023-03-03T03:24:15.331Z,63.44
2023-03-03T03:26:47.501Z,63.34
2023-03-03T03:29:16.273Z,63.15
2023-03-03T03:31:45.675Z,63.13
2023-03-03T03:34:14.570Z,62.55
2023-03-03T03:36:43.252Z,62.23
2023-03-03T03:39:12.137Z,62.25
2023-03-03T03:41:42.766Z,62.42
2023-03-03T03:44:11.349Z,63.23
2023-03-03T03:46:39.731Z,62.77
2023-03-03T03:49:08.316Z,62.59
2023-03-03T03:51:41.493Z,62.21
2023-03-03T03:54:11.514Z,61.47
2023-03-03T03:56:41.021Z,60.86
2023-03-03T03:59:09.618Z,60.62
2023-03-03T04:01:38.087Z,60.87
2023-03-03T04:04:06.563Z,60.86
2023-03-03T04:06:35.762Z,60.58
2023-03-03T04:09:05.367Z,60.89
2023-03-03T04:11:33.846Z,61.46
2023-03-03T04:14:04.175Z,62.01
2023-03-03T04:16:33.572Z,61.96
2023-03-03T04:19:01.856Z,61.68
2023-03-03T04:21:30.223Z,60.77
2023-03-03T04:24:00.039Z,60.86
2023-03-03T04:26:29.128Z,60.94
2023-03-03T04:28:58.930Z,61.55
2023-03-03T04:31:27.973Z,61.21
2023-03-03T04:33:56.510Z,60.83
2023-03-03T04:36:25.711Z,60.40
2023-03-03T04:38:54.500Z,60.66
2023-03-03T04:41:23.689Z,60.31
2023-03-03T04:43:51.866Z,59.91
2023-03-03T04:46:20.428Z,60.04
2023-03-03T04:48:49.340Z,60.44
2023-03-03T04:51:19.246Z,60.69
2023-03-03T04:53:47.726Z,60.66
2023-03-03T04:56:16.002Z,60.67
2023-03-03T04:58:44.173Z,60.84
2023-03-03T05:01:14.837Z,60.64
2023-03-03T05:03:43.214Z,60.66
2023-03-03T05:06:12.069Z,60.36
2023-03-03T05:08:40.236Z,59.95
2023-03-03T05:11:08.404Z,57.29
2023-03-03T05:13:36.592Z,55.86
2023-03-03T05:16:05.604Z,56.14
2023-03-03T05:18:33.945Z,57.15
2023-03-03T05:21:02.218Z,58.40
2023-03-03T05:23:31.499Z,62.22
2023-03-03T05:25:59.689Z,66.89
2023-03-03T05:28:28.065Z,67.10
2023-03-03T05:30:56.276Z,66.72
2023-03-03T05:33:24.613Z,65.89
2023-03-03T05:35:57.009Z,65.19
2023-03-03T05:38:25.571Z,64.44
2023-03-03T05:40:54.966Z,63.76
2023-03-03T05:43:23.242Z,62.43
2023-03-03T05:45:58.039Z,61.46
2023-03-03T05:48:26.257Z,61.94
2023-03-03T05:50:54.425Z,62.22
2023-03-03T05:53:22.599Z,62.08
2023-03-03T05:55:50.760Z,61.51
2023-03-03T05:58:18.834Z,61.25
2023-03-03T06:00:47.208Z,61.15
2023-03-03T06:03:15.518Z,61.54
2023-03-03T06:05:43.716Z,61.93
2023-03-03T06:08:12.134Z,61.24
2023-03-03T06:10:40.313Z,61.13
2023-03-03T06:13:08.893Z,60.80
2023-03-03T06:15:37.214Z,60.23
2023-03-03T06:18:05.550Z,60.03
2023-03-03T06:20:34.021Z,60.10
2023-03-03T06:23:02.503Z,58.16
2023-03-03T06:25:30.679Z,56.24
2023-03-03T06:27:58.847Z,56.27
2023-03-03T06:30:28.557Z,58.57
2023-03-03T06:32:57.135Z,59.47
2023-03-03T06:35:25.463Z,62.79
2023-03-03T06:37:53.989Z,67.39
2023-03-03T06:40:22.293Z,67.73
2023-03-03T06:42:50.751Z,67.15
2023-03-03T06:45:19.223Z,66.69
2023-03-03T06:47:47.395Z,65.94
2023-03-03T06:50:19.457Z,65.05
2023-03-03T06:52:47.629Z,64.41
2023-03-03T06:55:23.510Z,63.96
2023-03-03T06:57:51.656Z,63.00
2023-03-03T07:00:24.701Z,63.11
2023-03-03T07:03:14.730Z,62.50
2023-03-03T07:05:43.930Z,61.99
2023-03-03T07:08:18.158Z,60.88
2023-03-03T07:10:47.144Z,57.63
2023-03-03T07:13:24.630Z,56.03
2023-03-03T07:15:54.249Z,56.67
2023-03-03T07:18:33.679Z,58.97
2023-03-03T07:21:17.713Z,61.62
2023-03-03T07:23:48.657Z,66.37
2023-03-03T07:26:22.403Z,66.28
2023-03-03T07:28:54.942Z,65.60
2023-03-03T07:31:27.511Z,64.58
2023-03-03T07:33:56.195Z,63.12
2023-03-03T07:36:30.861Z,62.83
2023-03-03T07:39:05.736Z,62.38
2023-03-03T07:41:35.050Z,61.87
2023-03-03T07:44:07.114Z,61.33
2023-03-03T07:46:43.643Z,61.55
2023-03-03T07:49:22.257Z,61.22
2023-03-03T07:51:57.829Z,60.81
2023-03-03T07:54:40.601Z,60.57
2023-03-03T07:57:11.805Z,60.59
2023-03-03T07:59:48.879Z,59.99
2023-03-03T08:02:29.034Z,56.78
2023-03-03T08:04:57.494Z,54.84
2023-03-03T08:07:25.790Z,55.66
2023-03-03T08:09:59.494Z,57.74
2023-03-03T08:12:42.480Z,59.98
2023-03-03T08:15:21.325Z,64.79
2023-03-03T08:17:50.725Z,67.97
2023-03-03T08:20:50.229Z,66.78
2023-03-03T08:23:19.859Z,64.97
2023-03-03T08:25:49.859Z,64.82
2023-03-03T08:28:19.148Z,64.67
2023-03-03T08:30:48.147Z,62.91
2023-03-03T08:33:16.919Z,62.29
2023-03-03T08:35:46.037Z,62.60
2023-03-03T08:38:16.336Z,62.16
2023-03-03T08:40:45.325Z,62.04
2023-03-03T08:43:17.428Z,61.09
2023-03-03T08:45:46.590Z,60.62
2023-03-03T08:48:15.373Z,61.01
2023-03-03T08:50:44.053Z,60.55
2023-03-03T08:53:13.559Z,57.39
2023-03-03T08:55:42.550Z,55.41
2023-03-03T08:58:10.830Z,56.44
2023-03-03T09:00:38.999Z,59.94
2023-03-03T09:03:07.744Z,61.83
2023-03-03T09:05:38.313Z,65.72
2023-03-03T09:08:08.026Z,66.24
2023-03-03T09:10:36.398Z,64.78
2023-03-03T09:13:13.897Z,64.24
2023-03-03T09:15:42.270Z,64.26
2023-03-03T09:18:39.739Z,63.97
2023-03-03T09:21:24.286Z,62.70
2023-03-03T09:23:57.589Z,61.43
2023-03-03T09:26:53.392Z,60.82
2023-03-03T09:29:29.757Z,57.45
2023-03-03T09:32:01.283Z,56.14
2023-03-03T09:34:42.710Z,57.54
2023-03-03T09:37:24.081Z,58.58
2023-03-03T09:39:57.681Z,62.05
2023-03-03T09:42:38.947Z,65.61
2023-03-03T09:45:18.106Z,65.27
2023-03-03T09:47:58.638Z,63.74
2023-03-03T09:50:42.170Z,63.44
2023-03-03T09:53:28.777Z,62.81
2023-03-03T09:56:20.194Z,63.03
2023-03-03T09:58:58.607Z,62.03
2023-03-03T10:01:41.009Z,61.07
2023-03-03T10:04:24.524Z,61.81
2023-03-03T10:07:19.048Z,61.24
2023-03-03T10:10:03.689Z,60.59
2023-03-03T10:12:39.447Z,60.00
2023-03-03T10:15:43.040Z,58.23
2023-03-03T10:18:33.209Z,55.19
2023-03-03T10:21:23.219Z,57.57
2023-03-03T10:23:59.242Z,59.56
2023-03-03T10:26:44.707Z,64.32
2023-03-03T10:29:34.527Z,66.70
2023-03-03T10:32:28.161Z,65.15
2023-03-03T10:35:24.515Z,65.19
2023-03-03T10:38:07.752Z,64.59
2023-03-03T10:40:51.193Z,62.54
2023-03-03T10:43:32.502Z,60.32
2023-03-03T10:46:22.753Z,57.74
2023-03-03T10:49:13.771Z,57.18
2023-03-03T10:52:12.039Z,59.22
2023-03-03T10:55:04.897Z,62.57
2023-03-03T10:57:52.520Z,65.15
2023-03-03T11:00:26.525Z,63.52
2023-03-03T11:03:11.494Z,63.39
2023-03-03T11:05:42.444Z,63.58
2023-03-03T11:08:19.620Z,63.08
2023-03-03T11:11:12.461Z,62.60
2023-03-03T11:13:59.952Z,62.16
2023-03-03T11:16:37.390Z,61.62
2023-03-03T11:19:24.696Z,59.90
2023-03-03T11:22:08.640Z,60.27
2023-03-03T11:25:08.969Z,57.45
2023-03-03T11:27:37.140Z,56.18
2023-03-03T11:30:27.331Z,58.57
2023-03-03T11:33:05.321Z,58.13
2023-03-03T11:35:47.430Z,63.64
2023-03-03T11:38:31.164Z,65.94
2023-03-03T11:41:08.035Z,65.84
2023-03-03T11:43:47.170Z,65.69
2023-03-03T11:46:18.556Z,64.66
2023-03-03T11:48:54.676Z,63.49
2023-03-03T11:51:47.634Z,62.68
2023-03-03T11:54:20.616Z,61.48
2023-03-03T11:56:49.092Z,60.54
2023-03-03T11:59:17.474Z,60.49
2023-03-03T12:02:28.076Z,60.58
2023-03-03T12:05:00.373Z,58.52
2023-03-03T12:07:52.437Z,56.43
2023-03-03T12:10:39.347Z,57.79
2023-03-03T12:13:19.498Z,58.62
2023-03-03T12:16:09.749Z,62.50
2023-03-03T12:19:12.883Z,65.31
2023-03-03T12:21:54.571Z,64.72
2023-03-03T12:24:29.000Z,63.32
2023-03-03T12:27:03.006Z,62.94
2023-03-03T12:29:47.043Z,63.21
2023-03-03T12:32:30.919Z,62.36
2023-03-03T12:35:15.143Z,61.65
2023-03-03T12:37:54.977Z,61.42
2023-03-03T12:40:35.954Z,59.83
2023-03-03T12:43:09.449Z,60.64
2023-03-03T12:45:46.835Z,60.73
2023-03-03T12:48:43.887Z,60.46
2023-03-03T12:51:28.140Z,57.78
2023-03-03T12:54:19.454Z,56.32
2023-03-03T12:56:58.905Z,58.66
2023-03-03T13:00:11.511Z,60.14
2023-03-03T13:02:51.550Z,63.17
2023-03-03T13:05:25.150Z,66.02
2023-03-03T13:08:18.540Z,65.00
2023-03-03T13:10:53.445Z,64.55
2023-03-03T13:13:30.320Z,63.75
2023-03-03T13:16:06.424Z,62.37
2023-03-03T13:18:47.860Z,62.26
2023-03-03T13:21:28.372Z,62.01
2023-03-03T13:24:22.810Z,61.24
2023-03-03T13:27:27.537Z,60.94
2023-03-03T13:29:58.369Z,61.02
2023-03-03T13:32:32.527Z,60.68
2023-03-03T13:35:34.156Z,60.05
2023-03-03T13:38:03.437Z,57.65
2023-03-03T13:40:43.857Z,56.69
2023-03-03T13:43:28.963Z,58.40
2023-03-03T13:46:21.924Z,59.36
2023-03-03T13:49:03.916Z,63.08
2023-03-03T13:51:48.678Z,66.02
2023-03-03T13:54:29.936Z,66.06
2023-03-03T13:57:23.227Z,65.18
2023-03-03T14:00:29.579Z,63.25
2023-03-03T14:03:03.706Z,61.90
2023-03-03T14:05:39.522Z,62.43
2023-03-03T14:08:25.766Z,61.80
2023-03-03T14:11:24.280Z,62.12
2023-03-03T14:14:12.267Z,61.79
2023-03-03T14:16:51.068Z,61.31
2023-03-03T14:19:24.684Z,61.15
2023-03-03T14:22:00.616Z,61.40
2023-03-03T14:24:29.525Z,61.40
2023-03-03T14:26:59.733Z,61.29
2023-03-03T14:29:27.854Z,60.85
2023-03-03T14:32:20.912Z,60.37
2023-03-03T14:34:59.597Z,60.94
2023-03-03T14:37:30.493Z,60.41
2023-03-03T14:40:21.640Z,60.14
2023-03-03T14:42:52.782Z,60.14
2023-03-03T14:45:32.225Z,60.33
2023-03-03T14:48:10.628Z,60.16
2023-03-03T14:50:41.569Z,58.16
2023-03-03T14:53:18.800Z,56.89
2023-03-03T14:55:49.316Z,57.72
2023-03-03T14:58:26.767Z,59.71
2023-03-03T15:01:18.205Z,60.02
2023-03-03T15:03:49.789Z,63.50
2023-03-03T15:06:53.851Z,67.51
2023-03-03T15:09:41.943Z,66.58
2023-03-03T15:12:37.517Z,65.87
2023-03-03T15:15:05.690Z,65.49
2023-03-03T15:17:56.683Z,64.95
2023-03-03T15:20:33.762Z,64.77
2023-03-03T15:23:17.601Z,64.33
2023-03-03T15:26:02.876Z,63.81
2023-03-03T15:28:40.160Z,64.00
2023-03-03T15:31:14.097Z,62.43
2023-03-03T15:34:04.661Z,61.39
2023-03-03T15:36:49.426Z,61.60
2023-03-03T15:39:23.849Z,61.12
2023-03-03T15:41:59.490Z,60.74
2023-03-03T15:44:36.774Z,59.98
2023-03-03T15:47:23.482Z,60.33
2023-03-03T15:49:57.592Z,60.54
2023-03-03T15:53:06.213Z,60.67
2023-03-03T15:55:43.298Z,61.14
2023-03-03T15:58:11.364Z,61.53
2023-03-03T16:00:45.576Z,61.83
2023-03-03T16:03:46.724Z,61.80
2023-03-03T16:06:24.211Z,61.28
2023-03-03T16:09:17.164Z,60.83
2023-03-03T16:11:47.178Z,61.35
2023-03-03T16:14:33.706Z,61.15
2023-03-03T16:17:26.837Z,61.19
2023-03-03T16:20:16.925Z,60.96
2023-03-03T16:23:13.153Z,60.70
2023-03-03T16:25:55.558Z,59.93
2023-03-03T16:28:44.005Z,58.52
2023-03-03T16:31:34.155Z,58.72
2023-03-03T16:34:40.361Z,60.59
2023-03-03T16:37:11.607Z,63.91
2023-03-03T16:40:01.078Z,66.94
2023-03-03T16:42:33.858Z,66.87
2023-03-03T16:45:15.656Z,66.33
2023-03-03T16:47:59.192Z,65.89
2023-03-03T16:50:46.694Z,65.22
2023-03-03T16:53:43.144Z,64.70
2023-03-03T16:56:18.701Z,64.23
2023-03-03T16:59:16.772Z,63.69
2023-03-03T17:02:03.981Z,62.85
2023-03-03T17:04:37.411Z,62.90
2023-03-03T17:07:20.495Z,62.66
2023-03-03T17:10:28.320Z,62.44
2023-03-03T17:13:13.371Z,62.14
2023-03-03T17:15:47.786Z,62.50
2023-03-03T17:18:38.704Z,61.95
2023-03-03T17:21:36.447Z,61.65
2023-03-03T17:24:10.867Z,61.62
2023-03-03T17:26:56.137Z,61.51
2023-03-03T17:29:51.347Z,61.74
2023-03-03T17:32:53.826Z,61.72
2023-03-03T17:35:38.215Z,61.10
2023-03-03T17:38:45.774Z,61.00
2023-03-03T17:41:19.985Z,61.23
2023-03-03T17:44:16.214Z,60.96
2023-03-03T17:46:55.215Z,60.85
2023-03-03T17:49:58.138Z,60.80
2023-03-03T17:52:52.513Z,61.25
2023-03-03T17:55:33.887Z,61.30
2023-03-03T17:58:14.437Z,60.73
2023-03-03T18:01:01.064Z,61.13
2023-03-03T18:03:37.536Z,60.98
2023-03-03T18:06:26.901Z,60.81
2023-03-03T18:09:33.780Z,60.15
2023-03-03T18:12:37.179Z,60.57
2023-03-03T18:15:24.400Z,60.66
2023-03-03T18:17:59.540Z,60.84
2023-03-03T18:20:48.601Z,61.21
2023-03-03T18:23:42.384Z,61.76
2023-03-03T18:26:28.973Z,61.65
2023-03-03T18:29:19.059Z,61.09
2023-03-03T18:31:50.793Z,61.39
2023-03-03T18:34:18.985Z,61.14
2023-03-03T18:36:57.929Z,61.51
2023-03-03T18:39:46.316Z,61.69
2023-03-03T18:42:17.807Z,61.31
2023-03-03T18:44:46.182Z,61.47
2023-03-03T18:47:15.276Z,61.60
2023-03-03T18:49:49.849Z,61.57
2023-03-03T18:52:21.804Z,61.64
2023-03-03T18:55:09.384Z,61.67
2023-03-03T18:57:38.311Z,61.76
2023-03-03T19:00:36.759Z,61.67
2023-03-03T19:03:59.096Z,61.53
2023-03-03T19:06:36.382Z,60.85
2023-03-03T19:09:06.308Z,60.70
2023-03-03T19:11:50.959Z,60.82
2023-03-03T19:14:29.158Z,61.28
2023-03-03T19:16:59.223Z,61.78
2023-03-03T19:19:38.100Z,61.82
2023-03-03T19:22:26.164Z,61.68
2023-03-03T19:25:08.343Z,61.39
2023-03-03T19:27:39.066Z,61.43
2023-03-03T19:30:25.978Z,61.33
2023-03-03T19:33:12.991Z,61.52
2023-03-03T19:36:00.142Z,61.60
2023-03-03T19:38:55.222Z,61.33
2023-03-03T19:42:01.072Z,61.17
2023-03-03T19:44:50.541Z,61.55
2023-03-03T19:47:36.950Z,61.76
2023-03-03T19:50:34.608Z,62.01
2023-03-03T19:53:21.312Z,61.80
2023-03-03T19:55:55.227Z,61.54
2023-03-03T19:58:32.716Z,61.12
2023-03-03T20:01:29.919Z,61.31
2023-03-03T20:04:16.362Z,61.30
2023-03-03T20:07:30.115Z,61.63
2023-03-03T20:10:11.691Z,61.85
2023-03-03T20:12:47.708Z,62.24
2023-03-03T20:15:21.403Z,62.24
2023-03-03T20:18:03.644Z,62.29
2023-03-03T20:20:47.279Z,62.21
2023-03-03T20:23:30.097Z,62.43
2023-03-03T20:26:29.919Z,62.48
2023-03-03T20:29:19.893Z,62.51
2023-03-03T20:31:53.139Z,62.46
2023-03-03T20:34:30.469Z,62.31
2023-03-03T20:37:04.417Z,62.37
2023-03-03T20:39:53.132Z,62.53
2023-03-03T20:42:30.107Z,61.94
2023-03-03T20:45:29.351Z,61.49
2023-03-03T20:48:22.467Z,62.30
2023-03-03T20:50:53.518Z,62.39
2023-03-03T20:53:46.673Z,62.31
2023-03-03T20:56:20.905Z,62.18
2023-03-03T20:58:55.513Z,61.71
2023-03-03T21:01:53.985Z,61.66
2023-03-03T21:04:22.230Z,60.58
2023-03-03T21:06:50.742Z,60.53
2023-03-03T21:09:31.622Z,60.81
2023-03-03T21:12:01.834Z,61.41
2023-03-03T21:14:33.998Z,60.87
2023-03-03T21:17:24.193Z,60.96
2023-03-03T21:19:52.359Z,61.17
2023-03-03T21:22:20.733Z,61.64
2023-03-03T21:24:58.019Z,61.42
2023-03-03T21:27:31.925Z,61.35
2023-03-03T21:30:15.362Z,61.43
2023-03-03T21:32:48.269Z,61.65
2023-03-03T21:35:19.172Z,61.54
2023-03-03T21:37:56.235Z,61.70
2023-03-03T21:40:29.549Z,62.01
2023-03-03T21:42:59.979Z,61.65
2023-03-03T21:45:30.295Z,61.56
2023-03-03T21:48:00.251Z,61.77
2023-03-03T21:50:32.962Z,62.13
2023-03-03T21:53:01.568Z,62.03
2023-03-03T21:55:29.744Z,61.89
2023-03-03T21:57:58.016Z,62.00
2023-03-03T22:00:26.612Z,61.79
2023-03-03T22:02:55.603Z,61.84
2023-03-03T22:05:23.760Z,61.49
2023-03-03T22:07:51.866Z,61.11
2023-03-03T22:10:20.004Z,61.44
2023-03-03T22:12:48.073Z,61.53
2023-03-03T22:15:16.347Z,61.29
2023-03-03T22:17:45.545Z,61.49
2023-03-03T22:20:17.404Z,61.68
2023-03-03T22:22:46.705Z,61.56
2023-03-03T22:25:14.975Z,61.23
2023-03-03T22:27:43.038Z,61.10
2023-03-03T22:30:12.143Z,61.26
2023-03-03T22:32:40.316Z,61.41
2023-03-03T22:35:09.192Z,61.54
2023-03-03T22:37:37.381Z,61.46
2023-03-03T22:40:06.163Z,61.18
2023-03-03T22:42:34.340Z,61.38
2023-03-03T22:45:02.509Z,61.27
2023-03-03T22:47:30.889Z,61.22
2023-03-03T22:49:59.569Z,61.21
2023-03-03T22:52:27.951Z,60.92
2023-03-03T22:54:58.281Z,60.65
2023-03-03T22:57:26.752Z,60.61
2023-03-03T22:59:54.928Z,60.65
2023-03-03T23:02:23.103Z,60.69
2023-03-03T23:04:58.398Z,60.90
2023-03-03T23:07:28.342Z,61.08
2023-03-03T23:09:56.930Z,60.92
2023-03-03T23:12:25.093Z,60.84
2023-03-03T23:14:53.266Z,60.80
2023-03-03T23:17:21.335Z,60.69
2023-03-03T23:19:49.712Z,60.73
2023-03-03T23:22:17.893Z,60.95
2023-03-03T23:24:46.056Z,60.99
2023-03-03T23:27:14.329Z,60.66
2023-03-03T23:29:42.503Z,60.46
2023-03-03T23:32:11.317Z,60.77
2023-03-03T23:34:39.669Z,60.98
2023-03-03T23:37:07.838Z,60.60
2023-03-03T23:39:36.319Z,60.49
2023-03-03T23:42:05.003Z,60.49
2023-03-03T23:44:33.075Z,60.20
2023-03-03T23:47:01.351Z,60.05
2023-03-03T23:49:29.524Z,59.92
2023-03-03T23:51:57.693Z,59.99
2023-03-03T23:54:26.382Z,60.13
2023-03-03T23:56:54.857Z,59.02
2023-03-03T23:59:23.233Z,57.72
